Terminal Aerodrome Forecast
Issued by NWS North Platte, NE

Home | Current Version | Previous Version | Text Only | Print | Product List | Glossary Off
Versions: 1 2 3 4 5 6 7 8 9 10 11 12 13 14 15 16

000
FTUS43 KLBF 190553
TAFVTN
TAF
KVTN 190553Z 1906/2006 30004KT P6SM SCT250
     FM191000 VRB03KT 2SM BR SCT200
     FM191300 VRB03KT 4SM BR SCT200
     FM191800 14007KT P6SM FEW250
     FM192200 13011KT P6SM FEW250=

USA.gov is the U.S. government's official web portal to all federal, state and local government web resources and services.